sensor_id;sensor_type;location;lat;lon;timestamp;pressure;altitude;pressure_sealevel;temperature;humidity
41947;BME280;27638;42.184;24.848;2022-12-29T00:01:17;101058.34;;;9.37;81.05
41947;BME280;27638;42.184;24.848;2022-12-29T00:03:45;101066.34;;;9.35;81.22
41947;BME280;27638;42.184;24.848;2022-12-29T00:06:11;101064.56;;;9.36;81.47
41947;BME280;27638;42.184;24.848;2022-12-29T00:08:36;101066.13;;;9.27;81.55
41947;BME280;27638;42.184;24.848;2022-12-29T00:11:11;101067.94;;;9.04;81.69
41947;BME280;27638;42.184;24.848;2022-12-29T00:13:37;101072.38;;;9.04;82.43
41947;BME280;27638;42.184;24.848;2022-12-29T00:16:20;101074.06;;;9.05;82.15
41947;BME280;27638;42.184;24.848;2022-12-29T00:18:46;101072.13;;;9.07;81.54
41947;BME280;27638;42.184;24.848;2022-12-29T00:21:16;101075.38;;;8.99;81.30
41947;BME280;27638;42.184;24.848;2022-12-29T00:24:01;101073.94;;;8.95;81.96
41947;BME280;27638;42.184;24.848;2022-12-29T00:26:47;101077.19;;;8.99;82.32
41947;BME280;27638;42.184;24.848;2022-12-29T00:29:32;101075.13;;;9.02;82.17
41947;BME280;27638;42.184;24.848;2022-12-29T00:32:15;101094.81;;;8.98;81.43
41947;BME280;27638;42.184;24.848;2022-12-29T00:34:59;101094.94;;;8.85;82.54
41947;BME280;27638;42.184;24.848;2022-12-29T00:37:37;101084.59;;;8.82;82.07
41947;BME280;27638;42.184;24.848;2022-12-29T00:40:22;101092.91;;;8.89;82.39
41947;BME280;27638;42.184;24.848;2022-12-29T00:43:22;101095.78;;;8.86;82.64
41947;BME280;27638;42.184;24.848;2022-12-29T00:46:06;101097.09;;;8.91;82.73
41947;BME280;27638;42.184;24.848;2022-12-29T00:48:32;101107.31;;;8.96;82.65
41947;BME280;27638;42.184;24.848;2022-12-29T00:51:16;101100.84;;;9.00;82.40
41947;BME280;27638;42.184;24.848;2022-12-29T00:53:42;101115.50;;;9.04;82.62
41947;BME280;27638;42.184;24.848;2022-12-29T00:56:07;101109.34;;;8.92;82.68
41947;BME280;27638;42.184;24.848;2022-12-29T00:58:33;101104.78;;;8.94;82.63
41947;BME280;27638;42.184;24.848;2022-12-29T01:01:06;101108.75;;;9.00;82.98
41947;BME280;27638;42.184;24.848;2022-12-29T01:03:33;101116.22;;;9.06;83.00
41947;BME280;27638;42.184;24.848;2022-12-29T01:06:02;101109.72;;;8.99;83.10
41947;BME280;27638;42.184;24.848;2022-12-29T01:08:29;101098.91;;;8.91;83.86
41947;BME280;27638;42.184;24.848;2022-12-29T01:11:11;101091.69;;;8.93;84.13
41947;BME280;27638;42.184;24.848;2022-12-29T01:13:37;101100.00;;;9.00;84.11
41947;BME280;27638;42.184;24.848;2022-12-29T01:16:07;101096.38;;;9.01;84.34
41947;BME280;27638;42.184;24.848;2022-12-29T01:18:33;101097.13;;;9.03;84.58
41947;BME280;27638;42.184;24.848;2022-12-29T01:21:04;101093.16;;;9.08;84.41
41947;BME280;27638;42.184;24.848;2022-12-29T01:23:30;101089.56;;;9.09;84.22
41947;BME280;27638;42.184;24.848;2022-12-29T01:25:56;101096.28;;;9.13;84.28
41947;BME280;27638;42.184;24.848;2022-12-29T01:28:22;101091.47;;;9.18;84.17
41947;BME280;27638;42.184;24.848;2022-12-29T01:30:47;101092.31;;;9.19;84.33
41947;BME280;27638;42.184;24.848;2022-12-29T01:33:13;101099.41;;;9.18;84.60
41947;BME280;27638;42.184;24.848;2022-12-29T01:35:38;101096.50;;;9.21;84.65
41947;BME280;27638;42.184;24.848;2022-12-29T01:38:04;101097.47;;;9.20;84.65
41947;BME280;27638;42.184;24.848;2022-12-29T01:40:29;101093.03;;;9.21;84.22
41947;BME280;27638;42.184;24.848;2022-12-29T01:42:55;101089.66;;;9.19;84.01
41947;BME280;27638;42.184;24.848;2022-12-29T01:45:21;101078.97;;;9.09;84.69
41947;BME280;27638;42.184;24.848;2022-12-29T01:47:58;101075.50;;;9.09;85.19
41947;BME280;27638;42.184;24.848;2022-12-29T01:50:40;101074.78;;;9.07;84.96
41947;BME280;27638;42.184;24.848;2022-12-29T01:53:23;101071.53;;;9.03;85.31
41947;BME280;27638;42.184;24.848;2022-12-29T01:55:54;101067.69;;;9.07;85.26
41947;BME280;27638;42.184;24.848;2022-12-29T01:58:22;101060.25;;;9.12;85.15
41947;BME280;27638;42.184;24.848;2022-12-29T02:00:49;101058.91;;;9.18;85.11
41947;BME280;27638;42.184;24.848;2022-12-29T02:03:16;101055.78;;;9.24;84.84
41947;BME280;27638;42.184;24.848;2022-12-29T02:05:50;101054.47;;;9.29;84.76
41947;BME280;27638;42.184;24.848;2022-12-29T02:08:19;101049.91;;;9.32;83.79
41947;BME280;27638;42.184;24.848;2022-12-29T02:10:46;101040.06;;;9.11;84.61
41947;BME280;27638;42.184;24.848;2022-12-29T02:13:15;101039.09;;;9.12;84.80
41947;BME280;27638;42.184;24.848;2022-12-29T02:15:51;101042.81;;;9.21;84.58
41947;BME280;27638;42.184;24.848;2022-12-29T02:26:44;101031.28;;;9.22;84.63
41947;BME280;27638;42.184;24.848;2022-12-29T02:34:47;101024.19;;;9.34;83.72
41947;BME280;27638;42.184;24.848;2022-12-29T02:40:27;101010.16;;;9.22;83.80
41947;BME280;27638;42.184;24.848;2022-12-29T02:48:22;101011.63;;;8.92;84.80
41947;BME280;27638;42.184;24.848;2022-12-29T02:51:00;101009.69;;;8.83;84.95
41947;BME280;27638;42.184;24.848;2022-12-29T02:53:28;101014.38;;;8.80;85.59
41947;BME280;27638;42.184;24.848;2022-12-29T02:56:13;101010.88;;;8.68;85.43
41947;BME280;27638;42.184;24.848;2022-12-29T02:58:38;101002.34;;;8.53;86.41
41947;BME280;27638;42.184;24.848;2022-12-29T03:06:54;101001.00;;;8.37;86.76
41947;BME280;27638;42.184;24.848;2022-12-29T03:09:34;101008.69;;;8.40;86.13
41947;BME280;27638;42.184;24.848;2022-12-29T03:12:34;100999.81;;;8.41;86.15
41947;BME280;27638;42.184;24.848;2022-12-29T03:15:29;100986.75;;;8.39;85.54
41947;BME280;27638;42.184;24.848;2022-12-29T03:18:23;101001.50;;;8.53;84.62
41947;BME280;27638;42.184;24.848;2022-12-29T03:21:24;101007.63;;;8.53;84.86
41947;BME280;27638;42.184;24.848;2022-12-29T03:24:13;101005.47;;;8.58;84.90
41947;BME280;27638;42.184;24.848;2022-12-29T03:26:40;101004.28;;;8.62;84.14
41947;BME280;27638;42.184;24.848;2022-12-29T03:29:07;101004.03;;;8.66;83.62
41947;BME280;27638;42.184;24.848;2022-12-29T03:31:35;101007.41;;;8.56;83.83
41947;BME280;27638;42.184;24.848;2022-12-29T03:34:03;101006.31;;;8.59;83.83
41947;BME280;27638;42.184;24.848;2022-12-29T03:36:35;101014.47;;;8.56;83.02
41947;BME280;27638;42.184;24.848;2022-12-29T03:39:09;101003.66;;;8.37;82.53
41947;BME280;27638;42.184;24.848;2022-12-29T03:41:37;101005.59;;;8.22;82.64
41947;BME280;27638;42.184;24.848;2022-12-29T03:44:06;101004.28;;;8.27;83.05
41947;BME280;27638;42.184;24.848;2022-12-29T03:46:32;100997.44;;;8.25;83.43
41947;BME280;27638;42.184;24.848;2022-12-29T03:48:57;100993.81;;;8.15;82.55
41947;BME280;27638;42.184;24.848;2022-12-29T03:51:23;100994.88;;;8.01;82.12
41947;BME280;27638;42.184;24.848;2022-12-29T03:53:48;100986.50;;;7.72;82.33
41947;BME280;27638;42.184;24.848;2022-12-29T03:56:13;100991.53;;;7.51;83.35
41947;BME280;27638;42.184;24.848;2022-12-29T03:58:39;100994.13;;;7.40;84.89
41947;BME280;27638;42.184;24.848;2022-12-29T04:01:04;100995.19;;;7.38;84.05
41947;BME280;27638;42.184;24.848;2022-12-29T04:03:30;101002.69;;;7.31;84.32
41947;BME280;27638;42.184;24.848;2022-12-29T04:05:55;100993.00;;;7.31;83.99
41947;BME280;27638;42.184;24.848;2022-12-29T04:08:20;100998.00;;;7.47;84.11
41947;BME280;27638;42.184;24.848;2022-12-29T04:10:48;100997.09;;;7.59;83.54
41947;BME280;27638;42.184;24.848;2022-12-29T04:13:14;101000.13;;;7.66;83.06
41947;BME280;27638;42.184;24.848;2022-12-29T04:15:39;101013.59;;;7.74;82.97
41947;BME280;27638;42.184;24.848;2022-12-29T04:18:05;101005.84;;;7.84;82.45
41947;BME280;27638;42.184;24.848;2022-12-29T04:20:30;101005.38;;;7.90;81.00
41947;BME280;27638;42.184;24.848;2022-12-29T04:23:14;101011.72;;;7.87;80.62
41947;BME280;27638;42.184;24.848;2022-12-29T04:25:39;101016.03;;;7.88;81.03
41947;BME280;27638;42.184;24.848;2022-12-29T04:28:05;101021.19;;;7.90;81.87
41947;BME280;27638;42.184;24.848;2022-12-29T04:30:33;101016.16;;;7.87;81.92
41947;BME280;27638;42.184;24.848;2022-12-29T04:32:58;101022.03;;;7.90;82.55
41947;BME280;27638;42.184;24.848;2022-12-29T04:35:23;101029.09;;;7.90;82.09
41947;BME280;27638;42.184;24.848;2022-12-29T04:37:49;101030.56;;;7.94;80.75
41947;BME280;27638;42.184;24.848;2022-12-29T04:40:14;101029.38;;;7.98;80.67
41947;BME280;27638;42.184;24.848;2022-12-29T04:42:40;101036.13;;;8.02;79.71
41947;BME280;27638;42.184;24.848;2022-12-29T04:45:06;101036.13;;;8.02;78.94
41947;BME280;27638;42.184;24.848;2022-12-29T04:47:31;101038.75;;;8.02;78.83
41947;BME280;27638;42.184;24.848;2022-12-29T04:49:57;101043.19;;;8.01;78.57
41947;BME280;27638;42.184;24.848;2022-12-29T04:52:22;101043.53;;;7.97;78.14
41947;BME280;27638;42.184;24.848;2022-12-29T04:54:47;101043.88;;;7.92;78.31
41947;BME280;27638;42.184;24.848;2022-12-29T04:57:13;101042.84;;;7.82;79.11
41947;BME280;27638;42.184;24.848;2022-12-29T04:59:38;101041.91;;;7.83;78.33
41947;BME280;27638;42.184;24.848;2022-12-29T05:02:04;101046.44;;;7.81;78.21
41947;BME280;27638;42.184;24.848;2022-12-29T05:04:29;101042.25;;;7.79;78.02
41947;BME280;27638;42.184;24.848;2022-12-29T05:06:55;101045.84;;;7.78;77.37
41947;BME280;27638;42.184;24.848;2022-12-29T05:09:20;101047.47;;;7.67;78.35
41947;BME280;27638;42.184;24.848;2022-12-29T05:11:45;101054.34;;;7.57;78.49
41947;BME280;27638;42.184;24.848;2022-12-29T05:14:11;101055.75;;;7.50;78.53
41947;BME280;27638;42.184;24.848;2022-12-29T05:16:36;101055.78;;;7.25;79.16
41947;BME280;27638;42.184;24.848;2022-12-29T05:19:02;101054.78;;;7.02;79.83
41947;BME280;27638;42.184;24.848;2022-12-29T05:21:27;101049.53;;;6.89;80.79
41947;BME280;27638;42.184;24.848;2022-12-29T05:23:53;101048.78;;;6.75;81.54
41947;BME280;27638;42.184;24.848;2022-12-29T05:26:18;101048.06;;;6.72;81.86
41947;BME280;27638;42.184;24.848;2022-12-29T05:28:43;101045.94;;;6.65;82.82
41947;BME280;27638;42.184;24.848;2022-12-29T05:31:09;101049.84;;;6.72;83.09
41947;BME280;27638;42.184;24.848;2022-12-29T05:33:34;101040.03;;;6.87;83.10
41947;BME280;27638;42.184;24.848;2022-12-29T05:36:07;101043.09;;;6.93;79.31
41947;BME280;27638;42.184;24.848;2022-12-29T05:38:33;101044.56;;;6.97;77.37
41947;BME280;27638;42.184;24.848;2022-12-29T05:40:58;101045.84;;;6.92;77.88
41947;BME280;27638;42.184;24.848;2022-12-29T05:43:23;101047.94;;;6.87;79.61
41947;BME280;27638;42.184;24.848;2022-12-29T05:45:49;101039.94;;;6.63;80.75
41947;BME280;27638;42.184;24.848;2022-12-29T05:48:15;101036.16;;;6.42;81.65
41947;BME280;27638;42.184;24.848;2022-12-29T05:50:41;101031.25;;;6.23;83.09
41947;BME280;27638;42.184;24.848;2022-12-29T05:53:06;101028.63;;;6.23;84.15
41947;BME280;27638;42.184;24.848;2022-12-29T05:55:31;101028.13;;;6.30;84.22
41947;BME280;27638;42.184;24.848;2022-12-29T05:57:57;101037.72;;;6.44;83.97
41947;BME280;27638;42.184;24.848;2022-12-29T06:00:22;101042.56;;;6.50;82.83
41947;BME280;27638;42.184;24.848;2022-12-29T06:02:48;101039.34;;;6.20;82.01
41947;BME280;27638;42.184;24.848;2022-12-29T06:05:14;101030.47;;;6.35;81.07
41947;BME280;27638;42.184;24.848;2022-12-29T06:07:39;101031.41;;;6.47;80.99
41947;BME280;27638;42.184;24.848;2022-12-29T06:10:05;101034.47;;;6.53;82.01
41947;BME280;27638;42.184;24.848;2022-12-29T06:12:31;101031.22;;;6.62;83.07
41947;BME280;27638;42.184;24.848;2022-12-29T06:14:56;101034.16;;;6.70;83.13
41947;BME280;27638;42.184;24.848;2022-12-29T06:17:22;101037.22;;;6.77;83.78
41947;BME280;27638;42.184;24.848;2022-12-29T06:19:47;101040.91;;;6.75;83.51
41947;BME280;27638;42.184;24.848;2022-12-29T06:22:13;101046.06;;;6.76;83.45
41947;BME280;27638;42.184;24.848;2022-12-29T06:24:39;101044.69;;;6.83;83.65
41947;BME280;27638;42.184;24.848;2022-12-29T06:27:04;101049.53;;;6.89;82.90
41947;BME280;27638;42.184;24.848;2022-12-29T06:29:30;101047.63;;;6.91;82.15
41947;BME280;27638;42.184;24.848;2022-12-29T06:31:55;101041.94;;;6.97;81.92
41947;BME280;27638;42.184;24.848;2022-12-29T06:34:24;101043.72;;;6.84;83.60
41947;BME280;27638;42.184;24.848;2022-12-29T06:36:51;101051.22;;;6.90;83.59
41947;BME280;27638;42.184;24.848;2022-12-29T06:39:16;101061.09;;;6.99;83.42
41947;BME280;27638;42.184;24.848;2022-12-29T06:41:41;101057.31;;;7.03;82.28
41947;BME280;27638;42.184;24.848;2022-12-29T06:44:07;101061.06;;;7.12;81.26
41947;BME280;27638;42.184;24.848;2022-12-29T06:46:32;101065.81;;;7.07;81.45
41947;BME280;27638;42.184;24.848;2022-12-29T06:48:58;101065.72;;;7.09;83.13
41947;BME280;27638;42.184;24.848;2022-12-29T06:51:23;101071.50;;;7.14;82.86
41947;BME280;27638;42.184;24.848;2022-12-29T06:53:49;101075.72;;;7.16;83.87
41947;BME280;27638;42.184;24.848;2022-12-29T06:56:14;101070.88;;;7.10;85.08
41947;BME280;27638;42.184;24.848;2022-12-29T06:58:40;101077.91;;;7.22;84.72
41947;BME280;27638;42.184;24.848;2022-12-29T07:01:05;101085.00;;;7.09;83.73
41947;BME280;27638;42.184;24.848;2022-12-29T07:03:31;101087.00;;;6.67;84.20
41947;BME280;27638;42.184;24.848;2022-12-29T07:05:56;101087.13;;;6.66;83.90
41947;BME280;27638;42.184;24.848;2022-12-29T07:08:23;101081.28;;;6.35;85.47
41947;BME280;27638;42.184;24.848;2022-12-29T07:10:49;101080.69;;;6.18;86.73
41947;BME280;27638;42.184;24.848;2022-12-29T07:13:14;101084.53;;;6.26;87.24
41947;BME280;27638;42.184;24.848;2022-12-29T07:15:39;101091.47;;;6.27;88.27
41947;BME280;27638;42.184;24.848;2022-12-29T07:18:05;101091.63;;;6.12;88.87
41947;BME280;27638;42.184;24.848;2022-12-29T07:20:31;101089.06;;;6.24;89.09
41947;BME280;27638;42.184;24.848;2022-12-29T07:22:57;101084.25;;;6.17;90.08
41947;BME280;27638;42.184;24.848;2022-12-29T07:25:22;101086.00;;;6.03;91.46
41947;BME280;27638;42.184;24.848;2022-12-29T07:27:48;101092.84;;;6.33;90.37
41947;BME280;27638;42.184;24.848;2022-12-29T07:30:14;101086.34;;;6.12;91.24
41947;BME280;27638;42.184;24.848;2022-12-29T07:32:40;101095.91;;;6.27;91.43
41947;BME280;27638;42.184;24.848;2022-12-29T07:35:05;101094.13;;;6.40;91.22
41947;BME280;27638;42.184;24.848;2022-12-29T07:37:31;101082.44;;;6.31;91.45
41947;BME280;27638;42.184;24.848;2022-12-29T07:39:57;101085.59;;;6.36;93.00
41947;BME280;27638;42.184;24.848;2022-12-29T07:42:22;101091.19;;;6.45;93.27
41947;BME280;27638;42.184;24.848;2022-12-29T07:44:48;101088.59;;;6.70;93.33
41947;BME280;27638;42.184;24.848;2022-12-29T07:47:13;101086.81;;;6.70;93.68
41947;BME280;27638;42.184;24.848;2022-12-29T07:49:39;101086.69;;;6.85;93.15
41947;BME280;27638;42.184;24.848;2022-12-29T07:52:04;101080.50;;;6.86;92.56
41947;BME280;27638;42.184;24.848;2022-12-29T07:54:30;101083.31;;;6.95;93.46
41947;BME280;27638;42.184;24.848;2022-12-29T07:56:55;101092.16;;;7.20;93.64
41947;BME280;27638;42.184;24.848;2022-12-29T07:59:20;101085.31;;;7.30;93.02
41947;BME280;27638;42.184;24.848;2022-12-29T08:01:46;101090.22;;;7.47;92.20
41947;BME280;27638;42.184;24.848;2022-12-29T08:04:12;101091.59;;;7.53;92.09
41947;BME280;27638;42.184;24.848;2022-12-29T08:06:37;101094.44;;;7.50;91.92
41947;BME280;27638;42.184;24.848;2022-12-29T08:09:03;101092.38;;;7.66;91.84
41947;BME280;27638;42.184;24.848;2022-12-29T08:11:28;101096.88;;;7.77;90.54
41947;BME280;27638;42.184;24.848;2022-12-29T08:13:54;101101.28;;;7.52;91.49
41947;BME280;27638;42.184;24.848;2022-12-29T08:16:19;101097.00;;;7.75;90.92
41947;BME280;27638;42.184;24.848;2022-12-29T08:18:45;101091.69;;;7.88;90.13
41947;BME280;27638;42.184;24.848;2022-12-29T08:21:10;101099.91;;;8.07;90.02
41947;BME280;27638;42.184;24.848;2022-12-29T08:23:36;101099.00;;;8.19;88.80
41947;BME280;27638;42.184;24.848;2022-12-29T08:26:05;101097.38;;;8.29;89.39
41947;BME280;27638;42.184;24.848;2022-12-29T08:28:32;101093.41;;;8.48;89.00
41947;BME280;27638;42.184;24.848;2022-12-29T08:30:59;101093.00;;;8.76;87.75
41947;BME280;27638;42.184;24.848;2022-12-29T08:33:25;101089.31;;;8.90;85.80
41947;BME280;27638;42.184;24.848;2022-12-29T08:35:51;101082.47;;;8.99;85.57
41947;BME280;27638;42.184;24.848;2022-12-29T08:38:16;101079.94;;;9.08;85.29
41947;BME280;27638;42.184;24.848;2022-12-29T08:40:43;101081.38;;;9.01;85.18
41947;BME280;27638;42.184;24.848;2022-12-29T08:43:08;101077.06;;;9.00;85.21
41947;BME280;27638;42.184;24.848;2022-12-29T08:45:34;101076.34;;;9.09;85.14
41947;BME280;27638;42.184;24.848;2022-12-29T08:48:00;101079.69;;;9.11;85.17
41947;BME280;27638;42.184;24.848;2022-12-29T08:50:25;101078.88;;;9.11;84.85
41947;BME280;27638;42.184;24.848;2022-12-29T08:52:50;101071.28;;;9.06;85.86
41947;BME280;27638;42.184;24.848;2022-12-29T08:55:16;101066.97;;;9.27;85.66
41947;BME280;27638;42.184;24.848;2022-12-29T08:57:42;101063.38;;;9.40;84.67
41947;BME280;27638;42.184;24.848;2022-12-29T09:00:07;101061.56;;;9.40;84.80
41947;BME280;27638;42.184;24.848;2022-12-29T09:02:33;101056.63;;;9.47;84.51
41947;BME280;27638;42.184;24.848;2022-12-29T09:04:59;101051.84;;;9.41;84.45
41947;BME280;27638;42.184;24.848;2022-12-29T09:07:25;101050.72;;;9.54;83.85
41947;BME280;27638;42.184;24.848;2022-12-29T09:09:50;101044.69;;;9.64;83.30
41947;BME280;27638;42.184;24.848;2022-12-29T09:12:17;101039.28;;;9.65;83.66
41947;BME280;27638;42.184;24.848;2022-12-29T09:14:42;101040.25;;;9.64;83.89
41947;BME280;27638;42.184;24.848;2022-12-29T09:17:09;101036.84;;;9.73;83.96
41947;BME280;27638;42.184;24.848;2022-12-29T09:19:54;101023.38;;;9.76;83.48
41947;BME280;27638;42.184;24.848;2022-12-29T09:22:19;101027.31;;;9.82;82.65
41947;BME280;27638;42.184;24.848;2022-12-29T09:24:45;101018.75;;;9.89;83.10
41947;BME280;27638;42.184;24.848;2022-12-29T09:27:10;101016.44;;;9.96;83.36
41947;BME280;27638;42.184;24.848;2022-12-29T09:29:36;101018.19;;;10.07;82.46
41947;BME280;27638;42.184;24.848;2022-12-29T09:32:01;101012.56;;;10.00;83.19
41947;BME280;27638;42.184;24.848;2022-12-29T09:34:27;101009.22;;;9.98;83.65
41947;BME280;27638;42.184;24.848;2022-12-29T09:36:52;101011.75;;;10.00;83.37
41947;BME280;27638;42.184;24.848;2022-12-29T09:39:17;101010.72;;;10.12;82.97
41947;BME280;27638;42.184;24.848;2022-12-29T09:41:58;100997.94;;;10.17;83.35
41947;BME280;27638;42.184;24.848;2022-12-29T09:44:42;100987.69;;;10.23;82.91
41947;BME280;27638;42.184;24.848;2022-12-29T09:47:13;100985.91;;;10.24;82.85
41947;BME280;27638;42.184;24.848;2022-12-29T09:49:43;100978.53;;;10.28;82.29
41947;BME280;27638;42.184;24.848;2022-12-29T09:52:15;100971.28;;;10.30;83.29
41947;BME280;27638;42.184;24.848;2022-12-29T09:57:24;100967.63;;;10.42;81.36
41947;BME280;27638;42.184;24.848;2022-12-29T10:00:03;100965.31;;;10.48;81.45
41947;BME280;27638;42.184;24.848;2022-12-29T10:02:49;100964.63;;;10.56;81.35
41947;BME280;27638;42.184;24.848;2022-12-29T10:10:38;100949.28;;;10.50;82.30
41947;BME280;27638;42.184;24.848;2022-12-29T10:14:26;100945.22;;;10.46;82.14
41947;BME280;27638;42.184;24.848;2022-12-29T10:16:58;100945.66;;;10.51;81.77
41947;BME280;27638;42.184;24.848;2022-12-29T10:24:39;100936.44;;;10.45;82.71
41947;BME280;27638;42.184;24.848;2022-12-29T10:27:10;100930.50;;;10.32;82.84
41947;BME280;27638;42.184;24.848;2022-12-29T10:29:40;100927.78;;;10.43;83.09
41947;BME280;27638;42.184;24.848;2022-12-29T10:32:36;100926.09;;;10.42;82.61
41947;BME280;27638;42.184;24.848;2022-12-29T10:35:13;100928.88;;;10.41;83.08
41947;BME280;27638;42.184;24.848;2022-12-29T10:40:57;100915.03;;;10.16;83.89
41947;BME280;27638;42.184;24.848;2022-12-29T10:43:44;100917.56;;;10.18;84.73
41947;BME280;27638;42.184;24.848;2022-12-29T10:46:13;100917.13;;;10.13;84.96
41947;BME280;27638;42.184;24.848;2022-12-29T10:48:40;100912.66;;;10.13;85.52
41947;BME280;27638;42.184;24.848;2022-12-29T10:51:07;100910.81;;;10.25;84.75
41947;BME280;27638;42.184;24.848;2022-12-29T10:53:50;100903.69;;;10.26;85.26
41947;BME280;27638;42.184;24.848;2022-12-29T10:56:51;100902.72;;;10.27;84.76
41947;BME280;27638;42.184;24.848;2022-12-29T11:07:17;100890.13;;;10.19;83.19
41947;BME280;27638;42.184;24.848;2022-12-29T11:09:44;100890.47;;;10.05;84.48
41947;BME280;27638;42.184;24.848;2022-12-29T11:12:27;100887.88;;;10.14;84.07
41947;BME280;27638;42.184;24.848;2022-12-29T11:15:22;100881.28;;;10.30;82.13
41947;BME280;27638;42.184;24.848;2022-12-29T11:17:57;100872.50;;;10.29;81.98
41947;BME280;27638;42.184;24.848;2022-12-29T11:22:52;100864.97;;;10.55;81.25
41947;BME280;27638;42.184;24.848;2022-12-29T11:25:18;100863.31;;;10.54;80.56
41947;BME280;27638;42.184;24.848;2022-12-29T11:28:02;100865.41;;;10.30;81.39
41947;BME280;27638;42.184;24.848;2022-12-29T11:30:31;100861.97;;;10.39;81.32
41947;BME280;27638;42.184;24.848;2022-12-29T11:32:57;100860.94;;;10.30;82.10
41947;BME280;27638;42.184;24.848;2022-12-29T11:35:33;100860.34;;;10.47;81.48
41947;BME280;27638;42.184;24.848;2022-12-29T11:37:59;100855.91;;;10.58;81.43
41947;BME280;27638;42.184;24.848;2022-12-29T11:40:26;100849.81;;;10.67;80.61
41947;BME280;27638;42.184;24.848;2022-12-29T11:42:54;100850.94;;;10.74;81.34
41947;BME280;27638;42.184;24.848;2022-12-29T11:45:29;100861.69;;;10.82;80.76
41947;BME280;27638;42.184;24.848;2022-12-29T11:48:18;100844.28;;;10.89;80.25
41947;BME280;27638;42.184;24.848;2022-12-29T11:50:50;100850.28;;;11.01;79.93
41947;BME280;27638;42.184;24.848;2022-12-29T11:53:23;100850.00;;;11.04;78.76
41947;BME280;27638;42.184;24.848;2022-12-29T11:55:55;100843.56;;;10.87;79.58
41947;BME280;27638;42.184;24.848;2022-12-29T11:58:31;100837.84;;;10.72;80.18
41947;BME280;27638;42.184;24.848;2022-12-29T12:01:02;100834.78;;;10.86;80.03
41947;BME280;27638;42.184;24.848;2022-12-29T12:03:30;100826.97;;;10.85;79.82
41947;BME280;27638;42.184;24.848;2022-12-29T12:06:00;100826.25;;;10.73;80.25
41947;BME280;27638;42.184;24.848;2022-12-29T12:11:04;100819.00;;;10.66;81.58
41947;BME280;27638;42.184;24.848;2022-12-29T12:13:36;100822.66;;;10.74;81.87
41947;BME280;27638;42.184;24.848;2022-12-29T12:16:09;100821.66;;;10.75;81.32
41947;BME280;27638;42.184;24.848;2022-12-29T12:18:41;100821.41;;;10.78;80.70
41947;BME280;27638;42.184;24.848;2022-12-29T12:21:34;100817.66;;;10.91;80.83
41947;BME280;27638;42.184;24.848;2022-12-29T12:32:16;100811.22;;;10.93;80.13
41947;BME280;27638;42.184;24.848;2022-12-29T12:34:46;100814.59;;;10.95;79.06
41947;BME280;27638;42.184;24.848;2022-12-29T12:43:08;100805.34;;;10.80;81.05
41947;BME280;27638;42.184;24.848;2022-12-29T12:54:12;100797.84;;;10.95;81.13
41947;BME280;27638;42.184;24.848;2022-12-29T13:02:24;100801.19;;;11.06;79.55
41947;BME280;27638;42.184;24.848;2022-12-29T13:26:33;100806.91;;;11.11;78.59
41947;BME280;27638;42.184;24.848;2022-12-29T13:32:21;100807.47;;;11.25;79.07
41947;BME280;27638;42.184;24.848;2022-12-29T13:37:35;100801.47;;;11.32;77.81
41947;BME280;27638;42.184;24.848;2022-12-29T13:40:19;100803.69;;;11.37;78.20
41947;BME280;27638;42.184;24.848;2022-12-29T13:42:47;100803.97;;;11.43;77.85
41947;BME280;27638;42.184;24.848;2022-12-29T13:45:16;100811.63;;;11.37;77.47
41947;BME280;27638;42.184;24.848;2022-12-29T13:50:40;100802.28;;;11.33;77.71
41947;BME280;27638;42.184;24.848;2022-12-29T13:53:37;100810.38;;;11.41;77.21
41947;BME280;27638;42.184;24.848;2022-12-29T13:56:14;100803.69;;;11.37;77.08
41947;BME280;27638;42.184;24.848;2022-12-29T13:58:59;100816.09;;;11.36;77.96
41947;BME280;27638;42.184;24.848;2022-12-29T14:01:39;100815.69;;;11.31;78.00
41947;BME280;27638;42.184;24.848;2022-12-29T14:04:29;100817.22;;;11.05;79.59
41947;BME280;27638;42.184;24.848;2022-12-29T14:07:03;100817.78;;;11.08;81.19
41947;BME280;27638;42.184;24.848;2022-12-29T14:09:46;100813.88;;;11.12;80.34
41947;BME280;27638;42.184;24.848;2022-12-29T14:12:42;100808.00;;;10.80;80.65
41947;BME280;27638;42.184;24.848;2022-12-29T14:17:37;100810.66;;;10.90;81.81
41947;BME280;27638;42.184;24.848;2022-12-29T14:20:16;100811.50;;;10.90;80.74
41947;BME280;27638;42.184;24.848;2022-12-29T14:28:34;100815.41;;;10.86;82.16
41947;BME280;27638;42.184;24.848;2022-12-29T14:31:04;100816.94;;;10.98;81.19
41947;BME280;27638;42.184;24.848;2022-12-29T14:33:33;100827.00;;;11.14;79.82
41947;BME280;27638;42.184;24.848;2022-12-29T14:36:25;100812.78;;;11.25;80.63
41947;BME280;27638;42.184;24.848;2022-12-29T14:38:52;100812.34;;;11.29;80.07
41947;BME280;27638;42.184;24.848;2022-12-29T14:44:18;100823.94;;;11.38;78.55
41947;BME280;27638;42.184;24.848;2022-12-29T14:49:20;100827.13;;;11.41;77.86
41947;BME280;27638;42.184;24.848;2022-12-29T14:51:47;100818.19;;;11.42;77.83
41947;BME280;27638;42.184;24.848;2022-12-29T14:57:14;100815.69;;;11.41;78.06
41947;BME280;27638;42.184;24.848;2022-12-29T14:59:42;100816.09;;;11.36;77.85
41947;BME280;27638;42.184;24.848;2022-12-29T15:02:16;100813.47;;;11.27;77.40
41947;BME280;27638;42.184;24.848;2022-12-29T15:04:44;100820.72;;;11.25;77.66
41947;BME280;27638;42.184;24.848;2022-12-29T15:07:11;100815.56;;;11.23;77.40
41947;BME280;27638;42.184;24.848;2022-12-29T15:09:41;100813.75;;;11.24;77.22
41947;BME280;27638;42.184;24.848;2022-12-29T15:12:33;100814.03;;;11.20;78.27
41947;BME280;27638;42.184;24.848;2022-12-29T15:15:01;100816.97;;;11.17;77.73
41947;BME280;27638;42.184;24.848;2022-12-29T15:17:34;100822.53;;;11.14;77.66